Mino, Spain
Current Conditions -  °F | °C
As of 1:30 PM on Friday 24 Oct 2014 (Local Time) from LECO Reporting Station
Clear Clear  
Wind Chill: 73°   Ceiling: Unl
Heat Index: 73°   Visibility: 6mi
Dew Point: 63°   Wind: 2mph
Humidity: 69%   Direction: NA
Pressure: 30.12"   Gusts: NA
Location:  43.35°N, 8.2°W
Report Text: LECO 241130Z VRB02KT CAVOK 23/17 Q1020 NOSIG
Loading
Personal Weather Stations






























Interactive Weather Map
Tropical Storm Tracking
New forecast layout! Learn more

10-Day Weather Forecast

Advertisements
Track Severe Weather on mobile